sensor_id;sensor_type;location;lat;lon;timestamp;pressure;altitude;pressure_sealevel;temperature;humidity
36260;BME280;22296;50.824;5.644;2022-09-29T00:00:15;99114.03;;;14.97;62.97
36260;BME280;22296;50.824;5.644;2022-09-29T00:02:41;99109.19;;;14.94;62.95
36260;BME280;22296;50.824;5.644;2022-09-29T00:05:08;99110.34;;;14.93;62.91
36260;BME280;22296;50.824;5.644;2022-09-29T00:07:35;99101.59;;;14.91;62.83
36260;BME280;22296;50.824;5.644;2022-09-29T00:10:02;99105.50;;;14.90;62.96
36260;BME280;22296;50.824;5.644;2022-09-29T00:12:28;99099.97;;;14.90;63.07
36260;BME280;22296;50.824;5.644;2022-09-29T00:14:55;99097.56;;;14.89;62.98
36260;BME280;22296;50.824;5.644;2022-09-29T00:17:22;99106.25;;;14.87;62.97
36260;BME280;22296;50.824;5.644;2022-09-29T00:19:48;99100.69;;;14.87;62.93
36260;BME280;22296;50.824;5.644;2022-09-29T00:22:15;99097.47;;;14.85;63.06
36260;BME280;22296;50.824;5.644;2022-09-29T00:24:42;99097.47;;;14.85;62.94
36260;BME280;22296;50.824;5.644;2022-09-29T00:27:08;99100.97;;;14.82;63.00
36260;BME280;22296;50.824;5.644;2022-09-29T00:29:35;99096.56;;;14.81;63.34
36260;BME280;22296;50.824;5.644;2022-09-29T00:32:02;99106.09;;;14.80;63.01
36260;BME280;22296;50.824;5.644;2022-09-29T00:34:28;99096.13;;;14.79;63.05
36260;BME280;22296;50.824;5.644;2022-09-29T00:36:55;99098.91;;;14.79;63.12
36260;BME280;22296;50.824;5.644;2022-09-29T00:39:22;99097.31;;;14.78;63.09
36260;BME280;22296;50.824;5.644;2022-09-29T00:41:48;99094.53;;;14.78;63.12
36260;BME280;22296;50.824;5.644;2022-09-29T00:46:50;99096.44;;;14.74;63.02
36260;BME280;22296;50.824;5.644;2022-09-29T00:54:34;99103.13;;;14.73;63.03
36260;BME280;22296;50.824;5.644;2022-09-29T00:57:05;99101.53;;;14.72;63.20
36260;BME280;22296;50.824;5.644;2022-09-29T00:59:40;99094.72;;;14.69;63.28
36260;BME280;22296;50.824;5.644;2022-09-29T01:02:07;99099.50;;;14.69;63.20
36260;BME280;22296;50.824;5.644;2022-09-29T01:04:34;99092.31;;;14.68;63.20
36260;BME280;22296;50.824;5.644;2022-09-29T01:07:01;99087.00;;;14.78;62.82
36260;BME280;22296;50.824;5.644;2022-09-29T01:09:31;99090.25;;;14.80;63.00
36260;BME280;22296;50.824;5.644;2022-09-29T01:11:59;99093.22;;;14.72;63.10
36260;BME280;22296;50.824;5.644;2022-09-29T01:14:28;99088.00;;;14.70;63.24
36260;BME280;22296;50.824;5.644;2022-09-29T01:16:55;99087.94;;;14.67;63.18
36260;BME280;22296;50.824;5.644;2022-09-29T01:22:19;99089.81;;;14.63;63.35
36260;BME280;22296;50.824;5.644;2022-09-29T01:27:39;99100.94;;;14.63;63.18
36260;BME280;22296;50.824;5.644;2022-09-29T01:30:17;99096.91;;;14.60;63.19
36260;BME280;22296;50.824;5.644;2022-09-29T01:32:59;99100.03;;;14.59;63.30
36260;BME280;22296;50.824;5.644;2022-09-29T01:35:55;99102.38;;;14.57;63.37
36260;BME280;22296;50.824;5.644;2022-09-29T01:43:49;99107.09;;;14.56;63.45
36260;BME280;22296;50.824;5.644;2022-09-29T01:46:26;99106.28;;;14.56;63.43
36260;BME280;22296;50.824;5.644;2022-09-29T01:48:55;99103.06;;;14.54;63.37
36260;BME280;22296;50.824;5.644;2022-09-29T01:51:29;99116.50;;;14.52;63.56
36260;BME280;22296;50.824;5.644;2022-09-29T01:54:04;99110.59;;;14.53;63.37
36260;BME280;22296;50.824;5.644;2022-09-29T01:56:47;99111.75;;;14.52;63.32
36260;BME280;22296;50.824;5.644;2022-09-29T02:01:57;99114.06;;;14.50;63.47
36260;BME280;22296;50.824;5.644;2022-09-29T02:04:31;99107.72;;;14.50;63.33
36260;BME280;22296;50.824;5.644;2022-09-29T02:07:03;99106.13;;;14.49;63.41
36260;BME280;22296;50.824;5.644;2022-09-29T02:09:37;99111.69;;;14.49;63.76
36260;BME280;22296;50.824;5.644;2022-09-29T02:12:07;99110.06;;;14.48;63.34
36260;BME280;22296;50.824;5.644;2022-09-29T02:14:44;99108.00;;;14.45;63.58
36260;BME280;22296;50.824;5.644;2022-09-29T02:17:19;99112.41;;;14.46;63.45
36260;BME280;22296;50.824;5.644;2022-09-29T02:19:50;99105.22;;;14.45;63.41
36260;BME280;22296;50.824;5.644;2022-09-29T02:22:17;99107.56;;;14.43;63.54
36260;BME280;22296;50.824;5.644;2022-09-29T02:24:44;99109.16;;;14.44;63.60
36260;BME280;22296;50.824;5.644;2022-09-29T02:27:11;99113.09;;;14.43;63.59
36260;BME280;22296;50.824;5.644;2022-09-29T02:29:38;99102.00;;;14.43;63.45
36260;BME280;22296;50.824;5.644;2022-09-29T02:32:07;99109.88;;;14.41;63.53
36260;BME280;22296;50.824;5.644;2022-09-29T02:34:41;99104.31;;;14.41;63.36
36260;BME280;22296;50.824;5.644;2022-09-29T02:40:21;99103.88;;;14.39;63.71
36260;BME280;22296;50.824;5.644;2022-09-29T02:43:12;99104.25;;;14.37;63.57
36260;BME280;22296;50.824;5.644;2022-09-29T02:49:07;99101.81;;;14.36;63.30
36260;BME280;22296;50.824;5.644;2022-09-29T02:51:41;99095.47;;;14.35;63.40
36260;BME280;22296;50.824;5.644;2022-09-29T02:54:48;99097.47;;;14.35;63.46
36260;BME280;22296;50.824;5.644;2022-09-29T02:57:31;99106.94;;;14.34;63.47
36260;BME280;22296;50.824;5.644;2022-09-29T03:00:11;99101.72;;;14.32;63.61
36260;BME280;22296;50.824;5.644;2022-09-29T03:02:40;99101.38;;;14.34;63.63
36260;BME280;22296;50.824;5.644;2022-09-29T03:05:09;99098.16;;;14.32;63.56
36260;BME280;22296;50.824;5.644;2022-09-29T03:07:37;99100.91;;;14.32;63.50
36260;BME280;22296;50.824;5.644;2022-09-29T03:10:05;99097.69;;;14.29;63.37
36260;BME280;22296;50.824;5.644;2022-09-29T03:12:33;99093.31;;;14.28;63.53
36260;BME280;22296;50.824;5.644;2022-09-29T03:15:00;99097.69;;;14.29;63.48
36260;BME280;22296;50.824;5.644;2022-09-29T03:17:27;99093.66;;;14.27;63.63
36260;BME280;22296;50.824;5.644;2022-09-29T03:19:54;99092.06;;;14.26;63.54
36260;BME280;22296;50.824;5.644;2022-09-29T03:22:21;99098.38;;;14.26;63.66
36260;BME280;22296;50.824;5.644;2022-09-29T03:24:48;99098.38;;;14.26;63.55
36260;BME280;22296;50.824;5.644;2022-09-29T03:27:15;99087.31;;;14.26;63.53
36260;BME280;22296;50.824;5.644;2022-09-29T03:29:42;99099.56;;;14.25;63.59
36260;BME280;22296;50.824;5.644;2022-09-29T03:32:08;99099.09;;;14.23;63.71
36260;BME280;22296;50.824;5.644;2022-09-29T03:34:35;99100.28;;;14.22;63.76
36260;BME280;22296;50.824;5.644;2022-09-29T03:37:03;99098.66;;;14.21;63.48
36260;BME280;22296;50.824;5.644;2022-09-29T03:39:29;99098.66;;;14.21;63.52
36260;BME280;22296;50.824;5.644;2022-09-29T03:41:56;99101.81;;;14.20;63.69
36260;BME280;22296;50.824;5.644;2022-09-29T03:44:23;99103.78;;;14.19;63.58
36260;BME280;22296;50.824;5.644;2022-09-29T03:46:49;99104.91;;;14.18;63.66
36260;BME280;22296;50.824;5.644;2022-09-29T03:49:16;99113.25;;;14.18;63.80
36260;BME280;22296;50.824;5.644;2022-09-29T03:51:43;99098.94;;;14.16;63.81
36260;BME280;22296;50.824;5.644;2022-09-29T03:54:10;99101.34;;;14.18;63.65
36260;BME280;22296;50.824;5.644;2022-09-29T03:56:38;99100.56;;;14.17;63.67
36260;BME280;22296;50.824;5.644;2022-09-29T03:59:05;99106.09;;;14.17;63.77
36260;BME280;22296;50.824;5.644;2022-09-29T04:01:34;99108.41;;;14.15;63.71
36260;BME280;22296;50.824;5.644;2022-09-29T04:04:01;99110.03;;;14.16;63.57
36260;BME280;22296;50.824;5.644;2022-09-29T04:06:28;99113.13;;;14.15;63.72
36260;BME280;22296;50.824;5.644;2022-09-29T04:08:55;99112.34;;;14.14;63.65
36260;BME280;22296;50.824;5.644;2022-09-29T04:11:22;99116.28;;;14.13;63.75
36260;BME280;22296;50.824;5.644;2022-09-29T04:13:48;99114.66;;;14.12;63.63
36260;BME280;22296;50.824;5.644;2022-09-29T04:16:15;99120.22;;;14.12;63.75
36260;BME280;22296;50.824;5.644;2022-09-29T04:18:42;99126.47;;;14.09;63.74
36260;BME280;22296;50.824;5.644;2022-09-29T04:21:10;99118.63;;;14.11;63.66
36260;BME280;22296;50.824;5.644;2022-09-29T04:23:37;99125.69;;;14.09;63.69
36260;BME280;22296;50.824;5.644;2022-09-29T04:26:04;99128.78;;;14.07;64.00
36260;BME280;22296;50.824;5.644;2022-09-29T04:28:32;99127.63;;;14.08;63.72
36260;BME280;22296;50.824;5.644;2022-09-29T04:30:59;99128.78;;;14.07;63.76
36260;BME280;22296;50.824;5.644;2022-09-29T04:33:26;99132.72;;;14.06;63.75
36260;BME280;22296;50.824;5.644;2022-09-29T04:35:56;99127.16;;;14.06;63.90
36260;BME280;22296;50.824;5.644;2022-09-29T04:38:22;99120.03;;;14.05;63.76
36260;BME280;22296;50.824;5.644;2022-09-29T04:40:49;99133.09;;;14.05;63.63
36260;BME280;22296;50.824;5.644;2022-09-29T04:43:16;99134.22;;;14.04;63.67
36260;BME280;22296;50.824;5.644;2022-09-29T04:45:43;99131.81;;;14.02;63.88
36260;BME280;22296;50.824;5.644;2022-09-29T04:48:10;99123.84;;;14.01;63.84
36260;BME280;22296;50.824;5.644;2022-09-29T04:50:37;99133.41;;;14.03;63.81
36260;BME280;22296;50.824;5.644;2022-09-29T04:53:03;99137.38;;;14.02;63.67
36260;BME280;22296;50.824;5.644;2022-09-29T04:55:30;99135.75;;;14.01;63.90
36260;BME280;22296;50.824;5.644;2022-09-29T04:57:57;99143.72;;;14.03;63.87
36260;BME280;22296;50.824;5.644;2022-09-29T05:00:24;99138.88;;;14.00;63.78
36260;BME280;22296;50.824;5.644;2022-09-29T05:02:50;99134.94;;;14.01;64.14
36260;BME280;22296;50.824;5.644;2022-09-29T05:05:17;99135.31;;;13.99;63.75
36260;BME280;22296;50.824;5.644;2022-09-29T05:07:44;99137.28;;;13.99;63.96
36260;BME280;22296;50.824;5.644;2022-09-29T05:10:11;99139.59;;;13.97;63.95
36260;BME280;22296;50.824;5.644;2022-09-29T05:12:37;99151.50;;;13.97;63.83
36260;BME280;22296;50.824;5.644;2022-09-29T05:15:05;99137.16;;;13.95;64.02
36260;BME280;22296;50.824;5.644;2022-09-29T05:17:32;99139.94;;;13.95;63.83
36260;BME280;22296;50.824;5.644;2022-09-29T05:19:59;99139.13;;;13.95;63.91
36260;BME280;22296;50.824;5.644;2022-09-29T05:22:25;99134.75;;;13.94;63.93
36260;BME280;22296;50.824;5.644;2022-09-29T05:24:52;99146.19;;;13.92;64.02
36260;BME280;22296;50.824;5.644;2022-09-29T05:27:19;99152.97;;;13.95;63.96
36260;BME280;22296;50.824;5.644;2022-09-29T05:29:48;99152.53;;;13.93;63.97
36260;BME280;22296;50.824;5.644;2022-09-29T05:32:15;99156.81;;;13.90;63.86
36260;BME280;22296;50.824;5.644;2022-09-29T05:34:42;99154.44;;;13.89;64.01
36260;BME280;22296;50.824;5.644;2022-09-29T05:37:08;99164.69;;;13.88;63.89
36260;BME280;22296;50.824;5.644;2022-09-29T05:39:35;99165.13;;;13.90;63.93
36260;BME280;22296;50.824;5.644;2022-09-29T05:42:09;99169.44;;;13.88;63.87
36260;BME280;22296;50.824;5.644;2022-09-29T05:44:37;99174.16;;;13.87;63.82
36260;BME280;22296;50.824;5.644;2022-09-29T05:47:03;99173.72;;;13.85;64.96
36260;BME280;22296;50.824;5.644;2022-09-29T05:49:30;99173.66;;;13.97;64.46
36260;BME280;22296;50.824;5.644;2022-09-29T05:51:59;99179.06;;;14.06;63.95
36260;BME280;22296;50.824;5.644;2022-09-29T05:54:25;99180.91;;;14.02;64.01
36260;BME280;22296;50.824;5.644;2022-09-29T05:56:53;99180.63;;;13.91;64.25
36260;BME280;22296;50.824;5.644;2022-09-29T05:59:21;99182.13;;;13.89;64.40
36260;BME280;22296;50.824;5.644;2022-09-29T06:01:48;99189.97;;;13.87;64.12
36260;BME280;22296;50.824;5.644;2022-09-29T06:04:15;99189.53;;;13.85;64.29
36260;BME280;22296;50.824;5.644;2022-09-29T06:06:43;99188.28;;;13.82;64.36
36260;BME280;22296;50.824;5.644;2022-09-29T06:09:09;99194.16;;;13.81;64.33
36260;BME280;22296;50.824;5.644;2022-09-29T06:11:37;99192.19;;;13.81;64.28
36260;BME280;22296;50.824;5.644;2022-09-29T06:14:04;99196.16;;;13.80;64.36
36260;BME280;22296;50.824;5.644;2022-09-29T06:16:31;99200.88;;;13.80;64.13
36260;BME280;22296;50.824;5.644;2022-09-29T06:19:00;99185.75;;;13.77;64.25
36260;BME280;22296;50.824;5.644;2022-09-29T06:21:27;99196.47;;;13.79;64.29
36260;BME280;22296;50.824;5.644;2022-09-29T06:23:55;99195.66;;;13.78;64.11
36260;BME280;22296;50.824;5.644;2022-09-29T06:26:24;99193.59;;;13.75;64.22
36260;BME280;22296;50.824;5.644;2022-09-29T06:28:52;99196.38;;;13.75;64.35
36260;BME280;22296;50.824;5.644;2022-09-29T06:31:21;99193.59;;;13.75;64.27
36260;BME280;22296;50.824;5.644;2022-09-29T06:33:48;99197.53;;;13.74;64.35
36260;BME280;22296;50.824;5.644;2022-09-29T06:36:43;99206.31;;;13.76;64.05
36260;BME280;22296;50.824;5.644;2022-09-29T06:39:29;99207.44;;;13.75;64.25
36260;BME280;22296;50.824;5.644;2022-09-29T06:41:56;99213.88;;;13.91;64.01
36260;BME280;22296;50.824;5.644;2022-09-29T06:44:24;99208.63;;;14.02;64.16
36260;BME280;22296;50.824;5.644;2022-09-29T06:46:52;99213.66;;;14.12;63.97
36260;BME280;22296;50.824;5.644;2022-09-29T06:49:20;99213.03;;;14.18;64.20
36260;BME280;22296;50.824;5.644;2022-09-29T06:51:47;99218.91;;;14.29;63.95
36260;BME280;22296;50.824;5.644;2022-09-29T06:54:16;99219.00;;;14.33;63.86
36260;BME280;22296;50.824;5.644;2022-09-29T06:56:47;99214.91;;;14.42;63.63
36260;BME280;22296;50.824;5.644;2022-09-29T06:59:15;99223.78;;;14.48;63.56
36260;BME280;22296;50.824;5.644;2022-09-29T07:01:42;99217.25;;;14.56;63.49
36260;BME280;22296;50.824;5.644;2022-09-29T07:04:09;99222.91;;;14.59;63.31
36260;BME280;22296;50.824;5.644;2022-09-29T07:06:36;99218.44;;;14.55;63.45
36260;BME280;22296;50.824;5.644;2022-09-29T07:09:02;99217.44;;;14.63;63.43
36260;BME280;22296;50.824;5.644;2022-09-29T07:11:29;99219.41;;;14.62;63.36
36260;BME280;22296;50.824;5.644;2022-09-29T07:13:56;99225.50;;;14.68;63.22
36260;BME280;22296;50.824;5.644;2022-09-29T07:16:22;99233.47;;;14.85;62.69
36260;BME280;22296;50.824;5.644;2022-09-29T07:18:50;99232.41;;;14.74;62.84
36260;BME280;22296;50.824;5.644;2022-09-29T07:21:17;99232.81;;;14.76;63.05
36260;BME280;22296;50.824;5.644;2022-09-29T07:23:45;99234.44;;;14.77;62.86
36260;BME280;22296;50.824;5.644;2022-09-29T07:26:14;99240.53;;;14.67;63.31
36260;BME280;22296;50.824;5.644;2022-09-29T07:28:44;99241.44;;;14.71;63.24
36260;BME280;22296;50.824;5.644;2022-09-29T07:31:13;99241.25;;;14.79;63.06
36260;BME280;22296;50.824;5.644;2022-09-29T07:33:43;99245.72;;;14.84;62.82
36260;BME280;22296;50.824;5.644;2022-09-29T07:36:12;99247.34;;;14.85;62.79
36260;BME280;22296;50.824;5.644;2022-09-29T07:38:39;99250.03;;;14.81;62.77
36260;BME280;22296;50.824;5.644;2022-09-29T07:41:07;99248.50;;;14.84;62.85
36260;BME280;22296;50.824;5.644;2022-09-29T07:43:35;99252.19;;;14.88;62.77
36260;BME280;22296;50.824;5.644;2022-09-29T07:46:02;99255.13;;;14.95;62.53
36260;BME280;22296;50.824;5.644;2022-09-29T07:48:30;99263.09;;;14.97;62.51
36260;BME280;22296;50.824;5.644;2022-09-29T07:51:03;99261.13;;;14.97;62.62
36260;BME280;22296;50.824;5.644;2022-09-29T07:53:30;99256.19;;;14.91;62.49
36260;BME280;22296;50.824;5.644;2022-09-29T07:56:08;99261.28;;;14.73;62.86
36260;BME280;22296;50.824;5.644;2022-09-29T07:58:36;99269.19;;;14.71;63.17
36260;BME280;22296;50.824;5.644;2022-09-29T08:01:05;99277.78;;;14.66;63.01
36260;BME280;22296;50.824;5.644;2022-09-29T08:03:33;99281.69;;;14.65;63.05
36260;BME280;22296;50.824;5.644;2022-09-29T08:05:59;99275.88;;;14.70;63.05
36260;BME280;22296;50.824;5.644;2022-09-29T08:08:26;99280.97;;;14.68;63.24
36260;BME280;22296;50.824;5.644;2022-09-29T08:11:01;99280.28;;;14.71;62.94
36260;BME280;22296;50.824;5.644;2022-09-29T08:13:28;99281.78;;;14.68;63.24
36260;BME280;22296;50.824;5.644;2022-09-29T08:15:59;99288.22;;;14.72;62.97
36260;BME280;22296;50.824;5.644;2022-09-29T08:18:28;99287.88;;;14.74;62.80
36260;BME280;22296;50.824;5.644;2022-09-29T08:20:54;99291.09;;;14.76;62.75
36260;BME280;22296;50.824;5.644;2022-09-29T08:23:27;99290.41;;;14.79;62.85
36260;BME280;22296;50.824;5.644;2022-09-29T08:26:01;99283.50;;;14.73;63.05
36260;BME280;22296;50.824;5.644;2022-09-29T08:28:33;99297.09;;;14.78;62.78
36260;BME280;22296;50.824;5.644;2022-09-29T08:31:01;99290.66;;;14.74;63.04
36260;BME280;22296;50.824;5.644;2022-09-29T08:33:31;99297.03;;;14.74;62.87
36260;BME280;22296;50.824;5.644;2022-09-29T08:35:58;99295.06;;;14.75;63.02
36260;BME280;22296;50.824;5.644;2022-09-29T08:38:25;99300.59;;;14.75;63.00
36260;BME280;22296;50.824;5.644;2022-09-29T08:40:53;99298.03;;;14.98;62.57
36260;BME280;22296;50.824;5.644;2022-09-29T08:46:17;99307.16;;;15.14;62.11
36260;BME280;22296;50.824;5.644;2022-09-29T08:49:06;99304.47;;;15.17;61.87
36260;BME280;22296;50.824;5.644;2022-09-29T08:51:55;99310.75;;;15.14;62.04
36260;BME280;22296;50.824;5.644;2022-09-29T08:54:34;99317.66;;;15.20;61.96
36260;BME280;22296;50.824;5.644;2022-09-29T08:57:08;99312.34;;;15.15;61.98
36260;BME280;22296;50.824;5.644;2022-09-29T08:59:40;99320.22;;;15.13;62.12
36260;BME280;22296;50.824;5.644;2022-09-29T09:08:08;99329.56;;;15.05;62.23
36260;BME280;22296;50.824;5.644;2022-09-29T09:13:29;99327.38;;;14.99;62.29
36260;BME280;22296;50.824;5.644;2022-09-29T09:16:40;99327.75;;;14.97;62.33
36260;BME280;22296;50.824;5.644;2022-09-29T09:21:51;99326.13;;;14.96;62.28
36260;BME280;22296;50.824;5.644;2022-09-29T09:24:37;99334.19;;;15.01;62.05
36260;BME280;22296;50.824;5.644;2022-09-29T09:27:10;99327.03;;;15.00;62.12
36260;BME280;22296;50.824;5.644;2022-09-29T09:29:42;99328.63;;;15.01;61.98
36260;BME280;22296;50.824;5.644;2022-09-29T09:32:15;99330.25;;;15.02;61.92
36260;BME280;22296;50.824;5.644;2022-09-29T09:34:53;99326.78;;;15.05;61.75
36260;BME280;22296;50.824;5.644;2022-09-29T09:37:34;99324.00;;;15.05;61.82
36260;BME280;22296;50.824;5.644;2022-09-29T09:42:37;99323.28;;;15.08;61.92
36260;BME280;22296;50.824;5.644;2022-09-29T09:45:06;99324.00;;;15.05;61.92
36260;BME280;22296;50.824;5.644;2022-09-29T09:48:34;99331.25;;;15.10;61.75
36260;BME280;22296;50.824;5.644;2022-09-29T09:51:17;99332.31;;;15.05;61.80
36260;BME280;22296;50.824;5.644;2022-09-29T09:53:49;99329.56;;;15.05;61.88
36260;BME280;22296;50.824;5.644;2022-09-29T09:59:06;99325.63;;;15.06;61.95
36260;BME280;22296;50.824;5.644;2022-09-29T10:01:37;99328.03;;;15.08;61.74
36260;BME280;22296;50.824;5.644;2022-09-29T10:04:04;99329.56;;;15.05;61.65
36260;BME280;22296;50.824;5.644;2022-09-29T10:06:31;99328.84;;;15.08;61.69
36260;BME280;22296;50.824;5.644;2022-09-29T10:08:59;99329.19;;;15.07;61.80
36260;BME280;22296;50.824;5.644;2022-09-29T10:11:27;99327.31;;;15.11;61.67
36260;BME280;22296;50.824;5.644;2022-09-29T10:14:02;99331.44;;;15.17;61.80
36260;BME280;22296;50.824;5.644;2022-09-29T10:16:39;99333.31;;;15.28;61.53
36260;BME280;22296;50.824;5.644;2022-09-29T10:19:09;99328.38;;;15.37;61.31
36260;BME280;22296;50.824;5.644;2022-09-29T10:21:41;99328.63;;;15.32;61.38
36260;BME280;22296;50.824;5.644;2022-09-29T10:24:23;99334.28;;;15.36;61.29
36260;BME280;22296;50.824;5.644;2022-09-29T10:26:54;99335.38;;;15.47;60.93
36260;BME280;22296;50.824;5.644;2022-09-29T10:29:28;99345.25;;;15.60;60.70
36260;BME280;22296;50.824;5.644;2022-09-29T10:32:04;99340.41;;;15.57;60.70
36260;BME280;22296;50.824;5.644;2022-09-29T10:34:34;99335.81;;;15.65;60.52
36260;BME280;22296;50.824;5.644;2022-09-29T10:37:04;99341.66;;;15.60;60.63
36260;BME280;22296;50.824;5.644;2022-09-29T10:39:37;99347.66;;;15.62;60.57
36260;BME280;22296;50.824;5.644;2022-09-29T10:47:32;99354.13;;;15.66;60.62
36260;BME280;22296;50.824;5.644;2022-09-29T10:52:59;99352.97;;;15.67;60.70
36260;BME280;22296;50.824;5.644;2022-09-29T10:55:31;99351.44;;;15.54;60.87
36260;BME280;22296;50.824;5.644;2022-09-29T10:58:00;99348.94;;;15.49;60.97
36260;BME280;22296;50.824;5.644;2022-09-29T11:00:37;99352.53;;;15.49;60.83
36260;BME280;22296;50.824;5.644;2022-09-29T11:05:54;99351.97;;;15.44;60.94
36260;BME280;22296;50.824;5.644;2022-09-29T11:08:24;99354.06;;;15.47;60.91
36260;BME280;22296;50.824;5.644;2022-09-29T11:11:26;99352.41;;;15.46;60.90
36260;BME280;22296;50.824;5.644;2022-09-29T11:13:53;99348.72;;;15.41;60.77
36260;BME280;22296;50.824;5.644;2022-09-29T11:16:37;99359.38;;;15.39;60.94
36260;BME280;22296;50.824;5.644;2022-09-29T11:19:08;99359.28;;;15.36;61.19
36260;BME280;22296;50.824;5.644;2022-09-29T11:24:33;99357.94;;;15.30;61.26
36260;BME280;22296;50.824;5.644;2022-09-29T11:30:08;99363.44;;;15.26;61.33
36260;BME280;22296;50.824;5.644;2022-09-29T11:41:17;99370.22;;;15.29;61.22
36260;BME280;22296;50.824;5.644;2022-09-29T11:44:04;99363.50;;;15.30;61.15
36260;BME280;22296;50.824;5.644;2022-09-29T11:52:49;99379.28;;;15.26;61.09
36260;BME280;22296;50.824;5.644;2022-09-29T12:04:40;99381.31;;;15.13;61.46
36260;BME280;22296;50.824;5.644;2022-09-29T12:10:20;99382.94;;;15.14;61.53
36260;BME280;22296;50.824;5.644;2022-09-29T12:13:10;99380.16;;;15.14;62.05
36260;BME280;22296;50.824;5.644;2022-09-29T12:15:53;99378.56;;;15.29;61.82
36260;BME280;22296;50.824;5.644;2022-09-29T12:20:55;99379.06;;;15.47;61.19
36260;BME280;22296;50.824;5.644;2022-09-29T12:23:26;99375.09;;;15.48;61.15
36260;BME280;22296;50.824;5.644;2022-09-29T12:26:18;99365.59;;;15.49;61.28
36260;BME280;22296;50.824;5.644;2022-09-29T12:31:23;99374.81;;;15.68;60.87
36260;BME280;22296;50.824;5.644;2022-09-29T12:33:58;99366.56;;;15.72;60.66
36260;BME280;22296;50.824;5.644;2022-09-29T12:36:39;99367.97;;;15.81;60.35
36260;BME280;22296;50.824;5.644;2022-09-29T12:39:28;99373.63;;;15.85;60.57
36260;BME280;22296;50.824;5.644;2022-09-29T12:42:11;99374.53;;;15.89;60.06
36260;BME280;22296;50.824;5.644;2022-09-29T12:44:43;99375.38;;;15.93;60.00
36260;BME280;22296;50.824;5.644;2022-09-29T12:47:43;99370.41;;;15.83;60.08
36260;BME280;22296;50.824;5.644;2022-09-29T12:50:24;99373.91;;;15.80;60.16
36260;BME280;22296;50.824;5.644;2022-09-29T12:52:56;99370.41;;;15.83;59.95
36260;BME280;22296;50.824;5.644;2022-09-29T12:55:47;99362.41;;;15.81;59.95
36260;BME280;22296;50.824;5.644;2022-09-29T12:58:29;99370.56;;;15.90;60.26
36260;BME280;22296;50.824;5.644;2022-09-29T13:01:03;99371.53;;;15.98;60.12
36260;BME280;22296;50.824;5.644;2022-09-29T13:15:21;99377.22;;;16.20;59.42
36260;BME280;22296;50.824;5.644;2022-09-29T13:18:16;99374.72;;;16.15;59.27
36260;BME280;22296;50.824;5.644;2022-09-29T13:20:55;99371.03;;;16.11;59.29
36260;BME280;22296;50.824;5.644;2022-09-29T13:23:32;99375.44;;;16.12;59.12
36260;BME280;22296;50.824;5.644;2022-09-29T13:29:14;99371.78;;;16.08;59.23
36260;BME280;22296;50.824;5.644;2022-09-29T13:31:44;99383.72;;;16.09;59.28
36260;BME280;22296;50.824;5.644;2022-09-29T13:34:27;99377.75;;;16.10;59.59
36260;BME280;22296;50.824;5.644;2022-09-29T13:37:04;99393.91;;;16.20;59.25
36260;BME280;22296;50.824;5.644;2022-09-29T13:39:32;99391.25;;;16.27;59.12
36260;BME280;22296;50.824;5.644;2022-09-29T13:50:54;99396.28;;;16.37;58.80
36260;BME280;22296;50.824;5.644;2022-09-29T13:53:35;99397.94;;;16.42;58.74
36260;BME280;22296;50.824;5.644;2022-09-29T14:01:10;99406.28;;;16.58;58.37
36260;BME280;22296;50.824;5.644;2022-09-29T14:03:44;99407.13;;;16.62;58.26
36260;BME280;22296;50.824;5.644;2022-09-29T14:06:21;99396.00;;;16.62;58.35
36260;BME280;22296;50.824;5.644;2022-09-29T14:09:12;99399.25;;;16.64;58.15
36260;BME280;22296;50.824;5.644;2022-09-29T14:11:46;99403.06;;;16.56;58.24
36260;BME280;22296;50.824;5.644;2022-09-29T14:14:21;99408.34;;;16.45;58.67
36260;BME280;22296;50.824;5.644;2022-09-29T14:17:11;99409.03;;;16.38;58.68
36260;BME280;22296;50.824;5.644;2022-09-29T14:19:58;99401.84;;;16.37;58.72
36260;BME280;22296;50.824;5.644;2022-09-29T14:30:18;99416.50;;;16.53;58.31
36260;BME280;22296;50.824;5.644;2022-09-29T14:32:57;99418.66;;;16.44;58.43
36260;BME280;22296;50.824;5.644;2022-09-29T14:38:26;99413.69;;;16.34;58.83
36260;BME280;22296;50.824;5.644;2022-09-29T14:40:56;99422.03;;;16.34;58.62
36260;BME280;22296;50.824;5.644;2022-09-29T14:52:29;99429.41;;;16.62;58.54
36260;BME280;22296;50.824;5.644;2022-09-29T14:58:06;99433.69;;;16.75;58.12
36260;BME280;22296;50.824;5.644;2022-09-29T15:00:50;99442.47;;;16.77;58.23
36260;BME280;22296;50.824;5.644;2022-09-29T15:06:14;99443.34;;;16.81;58.13
36260;BME280;22296;50.824;5.644;2022-09-29T15:08:43;99446.56;;;16.83;58.00
36260;BME280;22296;50.824;5.644;2022-09-29T15:11:27;99446.44;;;16.76;58.04
36260;BME280;22296;50.824;5.644;2022-09-29T15:13:56;99452.84;;;16.61;58.54
36260;BME280;22296;50.824;5.644;2022-09-29T15:16:32;99450.88;;;16.61;58.53
36260;BME280;22296;50.824;5.644;2022-09-29T15:19:21;99446.84;;;16.59;58.58
36260;BME280;22296;50.824;5.644;2022-09-29T15:22:28;99443.78;;;16.64;58.32
36260;BME280;22296;50.824;5.644;2022-09-29T15:25:18;99451.31;;;16.63;58.40
36260;BME280;22296;50.824;5.644;2022-09-29T15:27:48;99449.44;;;16.67;58.29
36260;BME280;22296;50.824;5.644;2022-09-29T15:30:19;99456.38;;;16.58;58.24
36260;BME280;22296;50.824;5.644;2022-09-29T15:32:48;99456.91;;;16.47;58.47
36260;BME280;22296;50.824;5.644;2022-09-29T15:35:22;99457.91;;;16.39;58.78
36260;BME280;22296;50.824;5.644;2022-09-29T15:40:19;99464.41;;;16.28;59.24
36260;BME280;22296;50.824;5.644;2022-09-29T15:42:46;99461.63;;;16.28;59.01
36260;BME280;22296;50.824;5.644;2022-09-29T15:45:19;99458.75;;;16.24;59.13
36260;BME280;22296;50.824;5.644;2022-09-29T15:48:04;99461.81;;;16.19;59.31
36260;BME280;22296;50.824;5.644;2022-09-29T15:50:33;99459.75;;;16.16;59.22
36260;BME280;22296;50.824;5.644;2022-09-29T15:53:07;99472.41;;;16.14;59.48
36260;BME280;22296;50.824;5.644;2022-09-29T15:55:35;99471.97;;;16.12;59.48
36260;BME280;22296;50.824;5.644;2022-09-29T16:01:02;99481.28;;;16.35;59.58